Moon Step — V3VU4 — position and weather

sailwx.info

Track history (hours):
 
Tides and Currents Weather Stations Pressure Air Temp Water Temp Dewpoint Dewpoint Depression Visibility Wind Speed Wind Dir Waves Ship Positions

Moon Step

Last reported at 2018-May-18 18:39 UTC. Time now 2018-May-22 18:01 UTC.
Position N 43°23' E 003°44'.

Length 101 m; draft 5.1 m.

Type: Cargo ship. MMSI: 312008000.

Date/timePositionNaut miles runAvg speedWind from/ knotsBaromVisibWave heightAir tempDewpointWater temp
2018-May-18 18:39N 43°23' E 003°44'0 0.0
2018-May-18 18:21N 43°23' E 003°44'  
2018-May-09 15:51N 40°59' E 001°38'510.3
2018-May-09 15:21N 41°02' E 001°44'410.3
2018-May-09 15:00N 41°04' E 001°48'510.5
2018-May-09 14:31N 41°07' E 001°53'510.8
2018-May-09 14:00N 41°10' E 001°59'510.7
2018-May-09 13:31N 41°14' E 002°05'510.5
2018-May-09 13:01N 41°17' E 002°10'4 8.1
2018-May-09 12:30N 41°21' E 002°10'1 0.2
2018-May-09 09:51N 41°21' E 002°09'0 0.0
2018-May-09 09:30N 41°21' E 002°09'0 0.0
2018-May-09 09:00N 41°21' E 002°09'0 0.0
2018-May-09 08:30N 41°21' E 002°09'0 0.0
2018-May-09 08:00N 41°21' E 002°09'0 0.0
2018-May-09 07:30N 41°21' E 002°09'0 0.0
2018-May-09 06:57N 41°21' E 002°09'0 0.0
2018-May-09 06:30N 41°21' E 002°09'0 0.0
2018-May-09 06:00N 41°21' E 002°09'0 0.0
2018-May-08 21:58N 41°21' E 002°09'1 1.6
2018-May-08 21:30N 41°21' E 002°10'4 7.5
2018-May-08 21:01N 41°17' E 002°11'5 9.6
2018-May-08 20:30N 41°20' E 002°17'5 9.9
2018-May-08 20:00N 41°22' E 002°23'  
Track history (hours):
 
Tides and Currents Weather Stations Pressure Air Temp Water Temp Dewpoint Dewpoint Depression Visibility Wind Speed Wind Dir Waves Ship Positions

Moon Step

Last reported at 2018-May-18 18:39 UTC. Time now 2018-May-22 18:01 UTC.
Position N 43°23' E 003°44'.

Length 101 m; draft 5.1 m.

Type: Cargo ship. MMSI: 312008000.

Date/timePositionNaut miles runAvg speedWind from/ knotsBaromVisibWave heightAir tempDewpointWater temp
2018-May-18 18:39N 43°23' E 003°44'0 0.0
2018-May-18 18:21N 43°23' E 003°44'  
2018-May-09 15:51N 40°59' E 001°38'510.3
2018-May-09 15:21N 41°02' E 001°44'410.3
2018-May-09 15:00N 41°04' E 001°48'510.5
2018-May-09 14:31N 41°07' E 001°53'510.8
2018-May-09 14:00N 41°10' E 001°59'510.7
2018-May-09 13:31N 41°14' E 002°05'510.5
2018-May-09 13:01N 41°17' E 002°10'4 8.1
2018-May-09 12:30N 41°21' E 002°10'1 0.2
2018-May-09 09:51N 41°21' E 002°09'0 0.0
2018-May-09 09:30N 41°21' E 002°09'0 0.0
2018-May-09 09:00N 41°21' E 002°09'0 0.0
2018-May-09 08:30N 41°21' E 002°09'0 0.0
2018-May-09 08:00N 41°21' E 002°09'0 0.0
2018-May-09 07:30N 41°21' E 002°09'0 0.0
2018-May-09 06:57N 41°21' E 002°09'0 0.0
2018-May-09 06:30N 41°21' E 002°09'0 0.0
2018-May-09 06:00N 41°21' E 002°09'0 0.0
2018-May-08 21:58N 41°21' E 002°09'1 1.6
2018-May-08 21:30N 41°21' E 002°10'4 7.5
2018-May-08 21:01N 41°17' E 002°11'5 9.6
2018-May-08 20:30N 41°20' E 002°17'5 9.9
2018-May-08 20:00N 41°22' E 002°23'  

Dump ship's entire track history